createdAt,value
2019-03-01T00:00:00.250Z,10.76
2019-03-01T00:00:04.655Z,10.76
2019-03-01T00:00:08.951Z,10.75
2019-03-01T00:00:13.259Z,10.76
2019-03-01T00:00:17.475Z,10.75
2019-03-01T00:00:21.780Z,10.75
2019-03-01T00:00:26.086Z,10.75
2019-03-01T00:00:30.397Z,10.75
2019-03-01T00:00:34.688Z,10.76
2019-03-01T00:00:38.987Z,10.75
2019-03-01T00:00:43.280Z,10.74
2019-03-01T00:00:47.482Z,10.74
2019-03-01T00:00:51.778Z,10.74
2019-03-01T00:00:56.077Z,10.74
2019-03-01T00:01:00.382Z,10.74
2019-03-01T00:01:04.845Z,10.74
2019-03-01T00:01:09.188Z,10.74
2019-03-01T00:01:13.500Z,10.75
2019-03-01T00:01:17.705Z,10.75
2019-03-01T00:01:22.008Z,10.75
2019-03-01T00:01:26.241Z,10.74
2019-03-01T00:01:30.540Z,10.74
2019-03-01T00:01:34.862Z,10.74
2019-03-01T00:01:39.062Z,10.73
2019-03-01T00:01:43.361Z,10.73
2019-03-01T00:01:47.652Z,10.74
2019-03-01T00:01:51.886Z,10.74
2019-03-01T00:01:56.190Z,10.73
2019-03-01T00:02:00.480Z,10.73
2019-03-01T00:02:04.978Z,10.72
2019-03-01T00:02:09.278Z,10.73
2019-03-01T00:02:13.619Z,10.73
2019-03-01T00:02:17.819Z,10.72
2019-03-01T00:02:22.111Z,10.73
2019-03-01T00:02:26.317Z,10.72
2019-03-01T00:02:30.618Z,10.73
2019-03-01T00:02:34.902Z,10.73
2019-03-01T00:02:39.093Z,10.72
2019-03-01T00:02:43.382Z,10.72
2019-03-01T00:02:47.690Z,10.73
2019-03-01T00:02:51.976Z,10.72
2019-03-01T00:02:56.265Z,10.72
2019-03-01T00:03:00.486Z,10.72
2019-03-01T00:03:04.793Z,10.73
2019-03-01T00:03:09.099Z,10.72
2019-03-01T00:03:13.399Z,10.73
2019-03-01T00:03:17.686Z,10.72
2019-03-01T00:03:21.991Z,10.72
2019-03-01T00:03:26.291Z,10.73
2019-03-01T00:03:30.479Z,10.73
2019-03-01T00:03:34.811Z,10.72
2019-03-01T00:03:39.111Z,10.73
2019-03-01T00:03:43.398Z,10.72
2019-03-01T00:03:47.711Z,10.72
2019-03-01T00:03:51.999Z,10.72
2019-03-01T00:03:56.299Z,10.73
2019-03-01T00:04:00.592Z,10.72
2019-03-01T00:04:04.906Z,10.73
2019-03-01T00:04:09.194Z,10.73
2019-03-01T00:04:13.307Z,10.73
2019-03-01T00:04:17.591Z,10.74
2019-03-01T00:04:21.885Z,10.74
2019-03-01T00:04:26.220Z,10.74
2019-03-01T00:04:30.516Z,10.72
2019-03-01T00:04:34.882Z,10.73
2019-03-01T00:04:39.200Z,10.73
2019-03-01T00:04:43.392Z,10.73
2019-03-01T00:04:47.685Z,10.73
2019-03-01T00:04:51.975Z,10.73
2019-03-01T00:04:56.263Z,10.73
2019-03-01T00:05:00.560Z,10.73
2019-03-01T00:05:04.937Z,10.74
2019-03-01T00:05:09.231Z,10.74
2019-03-01T00:05:13.550Z,10.74
2019-03-01T00:05:17.857Z,10.73
2019-03-01T00:05:22.151Z,10.73
2019-03-01T00:05:26.453Z,10.73
2019-03-01T00:05:30.763Z,10.74
2019-03-01T00:05:34.973Z,10.74
2019-03-01T00:05:39.275Z,10.73
2019-03-01T00:05:43.604Z,10.74
2019-03-01T00:05:47.891Z,10.74
2019-03-01T00:05:52.191Z,10.74
2019-03-01T00:05:56.479Z,10.74
2019-03-01T00:06:00.778Z,10.73
2019-03-01T00:06:05.075Z,10.74
2019-03-01T00:06:09.376Z,10.74
2019-03-01T00:06:13.667Z,10.74
2019-03-01T00:06:17.963Z,10.74
2019-03-01T00:06:22.270Z,10.75
2019-03-01T00:06:26.557Z,10.74
2019-03-01T00:06:30.860Z,10.74
2019-03-01T00:06:34.913Z,10.74
2019-03-01T00:06:39.206Z,10.74
2019-03-01T00:06:43.395Z,10.74
2019-03-01T00:06:47.750Z,10.74
2019-03-01T00:06:52.045Z,10.75
2019-03-01T00:06:56.337Z,10.75
2019-03-01T00:07:00.631Z,10.75
2019-03-01T00:07:04.965Z,10.74
2019-03-01T00:07:09.285Z,10.74
2019-03-01T00:07:13.581Z,10.75
2019-03-01T00:07:17.872Z,10.75
2019-03-01T00:07:22.162Z,10.75
2019-03-01T00:07:26.448Z,10.74
2019-03-01T00:07:30.734Z,10.75
2019-03-01T00:07:35.025Z,10.75
2019-03-01T00:07:39.231Z,10.74
2019-03-01T00:07:43.444Z,10.74
2019-03-01T00:07:47.750Z,10.75
2019-03-01T00:07:52.036Z,10.75
2019-03-01T00:07:56.346Z,10.74
2019-03-01T00:08:00.632Z,10.74
2019-03-01T00:08:04.942Z,10.74
2019-03-01T00:08:09.230Z,10.73
2019-03-01T00:08:13.526Z,10.74
2019-03-01T00:08:17.821Z,10.74
2019-03-01T00:08:22.019Z,10.73
2019-03-01T00:08:26.317Z,10.73
2019-03-01T00:08:30.602Z,10.74
2019-03-01T00:08:34.804Z,10.73
2019-03-01T00:08:39.096Z,10.73
2019-03-01T00:08:43.426Z,10.74
2019-03-01T00:08:47.713Z,10.74
2019-03-01T00:08:52.016Z,10.74
2019-03-01T00:08:56.055Z,10.74
2019-03-01T00:09:00.355Z,10.74
2019-03-01T00:09:04.769Z,10.75
2019-03-01T00:09:09.063Z,10.75
2019-03-01T00:09:13.345Z,10.75
2019-03-01T00:09:17.630Z,10.75
2019-03-01T00:09:21.920Z,10.75
2019-03-01T00:09:26.217Z,10.75
2019-03-01T00:09:30.517Z,10.75
2019-03-01T00:09:34.709Z,10.75
2019-03-01T00:09:39.013Z,10.74
2019-03-01T00:09:43.306Z,10.75
2019-03-01T00:09:47.592Z,10.75
2019-03-01T00:09:51.884Z,10.74
2019-03-01T00:09:56.208Z,10.76
2019-03-01T00:10:00.495Z,10.75
2019-03-01T00:10:04.941Z,10.75
2019-03-01T00:10:09.250Z,10.75
2019-03-01T00:10:13.563Z,10.76
2019-03-01T00:10:17.853Z,10.76
2019-03-01T00:10:22.150Z,10.76
2019-03-01T00:10:28.316Z,10.75
2019-03-01T00:10:32.523Z,10.75
2019-03-01T00:10:36.714Z,10.76
2019-03-01T00:10:41.019Z,10.76
2019-03-01T00:10:45.238Z,10.76
2019-03-01T00:10:49.527Z,10.75
2019-03-01T00:10:53.818Z,10.75
2019-03-01T00:10:58.106Z,10.76
2019-03-01T00:11:02.408Z,10.77
2019-03-01T00:11:06.661Z,10.76
2019-03-01T00:11:10.975Z,10.77
2019-03-01T00:11:15.204Z,10.77
2019-03-01T00:11:19.506Z,10.77
2019-03-01T00:11:23.810Z,10.77
2019-03-01T00:11:28.096Z,10.76
2019-03-01T00:11:32.387Z,10.77
2019-03-01T00:11:36.625Z,10.76
2019-03-01T00:11:40.915Z,10.77
2019-03-01T00:11:45.250Z,10.77
2019-03-01T00:11:49.554Z,10.77
2019-03-01T00:11:53.852Z,10.77
2019-03-01T00:11:58.146Z,10.78
2019-03-01T00:12:02.453Z,10.78
2019-03-01T00:12:06.763Z,10.78
2019-03-01T00:12:10.978Z,10.78
2019-03-01T00:12:15.316Z,10.79
2019-03-01T00:12:19.614Z,10.78
2019-03-01T00:12:23.902Z,10.79
2019-03-01T00:12:28.105Z,10.78
2019-03-01T00:12:32.417Z,10.78
2019-03-01T00:12:36.723Z,10.79
2019-03-01T00:12:41.030Z,10.77
2019-03-01T00:12:45.331Z,10.79
2019-03-01T00:12:49.534Z,10.78
2019-03-01T00:12:53.947Z,10.78
2019-03-01T00:12:58.238Z,10.78
2019-03-01T00:13:02.563Z,10.78
2019-03-01T00:13:06.853Z,10.77
2019-03-01T00:13:11.150Z,10.78
2019-03-01T00:13:15.454Z,10.78
2019-03-01T00:13:19.744Z,10.77
2019-03-01T00:13:24.029Z,10.78
2019-03-01T00:13:28.325Z,10.78
2019-03-01T00:13:32.619Z,10.78
2019-03-01T00:13:36.909Z,10.77
2019-03-01T00:13:41.206Z,10.77
2019-03-01T00:13:45.494Z,10.77
2019-03-01T00:13:49.785Z,10.77
2019-03-01T00:13:54.084Z,10.78
2019-03-01T00:13:58.384Z,10.78
2019-03-01T00:14:02.679Z,10.77
2019-03-01T00:14:06.999Z,10.77
2019-03-01T00:14:11.291Z,10.77
2019-03-01T00:14:15.640Z,10.77
2019-03-01T00:14:19.886Z,10.77
2019-03-01T00:14:24.184Z,10.77
2019-03-01T00:14:28.525Z,10.76
2019-03-01T00:14:32.817Z,10.76
2019-03-01T00:14:37.104Z,10.76
2019-03-01T00:14:41.392Z,10.77
2019-03-01T00:14:45.686Z,10.76
2019-03-01T00:14:49.921Z,10.75
2019-03-01T00:14:54.209Z,10.76
2019-03-01T00:14:58.499Z,10.76
2019-03-01T00:15:02.799Z,10.76
2019-03-01T00:15:07.134Z,10.76
2019-03-01T00:15:11.450Z,10.76
2019-03-01T00:15:15.668Z,10.75
2019-03-01T00:15:19.957Z,10.76
2019-03-01T00:15:24.253Z,10.75
2019-03-01T00:15:28.542Z,10.76
2019-03-01T00:15:32.839Z,10.76
2019-03-01T00:15:37.041Z,10.76
2019-03-01T00:15:41.334Z,10.75
2019-03-01T00:15:45.683Z,10.76
2019-03-01T00:15:49.875Z,10.76
2019-03-01T00:15:54.165Z,10.75
2019-03-01T00:15:58.453Z,10.76
2019-03-01T00:16:02.649Z,10.75
2019-03-01T00:16:06.848Z,10.76
2019-03-01T00:16:11.143Z,10.77
2019-03-01T00:16:15.454Z,10.76
2019-03-01T00:16:19.745Z,10.76
2019-03-01T00:16:24.054Z,10.76
2019-03-01T00:16:28.346Z,10.75
2019-03-01T00:16:32.672Z,10.75
2019-03-01T00:16:36.871Z,10.75
2019-03-01T00:16:41.163Z,10.75
2019-03-01T00:16:45.454Z,10.75
2019-03-01T00:16:49.792Z,10.75
2019-03-01T00:16:54.091Z,10.75
2019-03-01T00:16:58.425Z,10.75
2019-03-01T00:17:02.718Z,10.74
2019-03-01T00:17:07.007Z,10.76
2019-03-01T00:17:11.197Z,10.75
2019-03-01T00:17:15.529Z,10.75
2019-03-01T00:17:19.825Z,10.74
2019-03-01T00:17:24.173Z,10.74
2019-03-01T00:17:28.371Z,10.74
2019-03-01T00:17:32.679Z,10.76
2019-03-01T00:17:36.967Z,10.74
2019-03-01T00:17:41.062Z,10.74
2019-03-01T00:17:45.352Z,10.75
2019-03-01T00:17:49.461Z,10.74
2019-03-01T00:17:53.758Z,10.75
2019-03-01T00:17:58.046Z,10.75
2019-03-01T00:18:02.345Z,10.75
2019-03-01T00:18:06.634Z,10.76
2019-03-01T00:18:10.922Z,10.74
2019-03-01T00:18:15.226Z,10.75
2019-03-01T00:18:19.520Z,10.75
2019-03-01T00:18:23.810Z,10.75
2019-03-01T00:18:28.103Z,10.75
2019-03-01T00:18:32.421Z,10.76
2019-03-01T00:18:36.706Z,10.75
2019-03-01T00:18:41.014Z,10.74
2019-03-01T00:18:45.201Z,10.75
2019-03-01T00:18:49.493Z,10.76
2019-03-01T00:18:53.802Z,10.76
2019-03-01T00:18:58.098Z,10.76
2019-03-01T00:19:02.383Z,10.75
2019-03-01T00:19:06.681Z,10.76
2019-03-01T00:19:10.889Z,10.76
2019-03-01T00:19:15.188Z,10.77
2019-03-01T00:19:19.481Z,10.76
2019-03-01T00:19:23.813Z,10.77
2019-03-01T00:19:28.130Z,10.77
2019-03-01T00:19:32.415Z,10.76
2019-03-01T00:19:36.700Z,10.77
2019-03-01T00:19:41.022Z,10.76
2019-03-01T00:19:45.218Z,10.77
2019-03-01T00:19:49.413Z,10.77
2019-03-01T00:19:53.652Z,10.77
2019-03-01T00:19:57.950Z,10.77
2019-03-01T00:20:02.386Z,10.77
2019-03-01T00:20:06.686Z,10.77
2019-03-01T00:20:10.985Z,10.76
2019-03-01T00:20:15.291Z,10.77
2019-03-01T00:20:19.586Z,10.77
2019-03-01T00:20:23.907Z,10.76
2019-03-01T00:20:28.202Z,10.76
2019-03-01T00:20:32.493Z,10.75
2019-03-01T00:20:38.691Z,10.76
2019-03-01T00:20:42.888Z,10.76
2019-03-01T00:20:47.193Z,10.75
2019-03-01T00:20:51.422Z,10.75
2019-03-01T00:20:55.718Z,10.76
2019-03-01T00:21:00.018Z,10.76
2019-03-01T00:21:04.323Z,10.76
2019-03-01T00:21:08.622Z,10.76
2019-03-01T00:21:12.917Z,10.75
2019-03-01T00:21:17.226Z,10.75
2019-03-01T00:21:21.521Z,10.76
2019-03-01T00:21:25.817Z,10.76
2019-03-01T00:21:30.117Z,10.75
2019-03-01T00:21:34.503Z,10.76
2019-03-01T00:21:38.790Z,10.77
2019-03-01T00:21:42.980Z,10.76
2019-03-01T00:21:47.178Z,10.75
2019-03-01T00:21:51.364Z,10.76
2019-03-01T00:21:55.656Z,10.75
2019-03-01T00:21:59.941Z,10.75
2019-03-01T00:22:04.242Z,10.75
2019-03-01T00:22:08.532Z,10.76
2019-03-01T00:22:12.819Z,10.76
2019-03-01T00:22:17.126Z,10.75
2019-03-01T00:22:21.434Z,10.75
2019-03-01T00:22:25.791Z,10.74
2019-03-01T00:22:30.114Z,10.75
2019-03-01T00:22:34.470Z,10.75
2019-03-01T00:22:38.768Z,10.75
2019-03-01T00:22:43.060Z,10.74
2019-03-01T00:22:47.351Z,10.74
2019-03-01T00:22:51.689Z,10.75
2019-03-01T00:22:55.974Z,10.74
2019-03-01T00:23:00.309Z,10.75
2019-03-01T00:23:04.616Z,10.75
2019-03-01T00:23:08.909Z,10.75
2019-03-01T00:23:13.199Z,10.75
2019-03-01T00:23:17.531Z,10.75
2019-03-01T00:23:21.820Z,10.76
2019-03-01T00:23:26.119Z,10.75
2019-03-01T00:23:30.404Z,10.75
2019-03-01T00:23:34.697Z,10.74
2019-03-01T00:23:38.986Z,10.75
2019-03-01T00:23:43.275Z,10.76
2019-03-01T00:23:47.607Z,10.76
2019-03-01T00:23:51.900Z,10.75
2019-03-01T00:23:56.235Z,10.74
2019-03-01T00:24:00.529Z,10.74
2019-03-01T00:24:04.837Z,10.75
2019-03-01T00:24:09.130Z,10.75
2019-03-01T00:24:13.328Z,10.76
2019-03-01T00:24:17.624Z,10.75
2019-03-01T00:24:21.909Z,10.76
2019-03-01T00:24:26.205Z,10.75
2019-03-01T00:24:30.498Z,10.75
2019-03-01T00:24:34.787Z,10.75
2019-03-01T00:24:39.007Z,10.75
2019-03-01T00:24:43.275Z,10.75
2019-03-01T00:24:47.574Z,10.75
2019-03-01T00:24:51.936Z,10.74
2019-03-01T00:24:56.244Z,10.74
2019-03-01T00:25:00.476Z,10.74
2019-03-01T00:25:04.829Z,10.74
2019-03-01T00:25:09.121Z,10.75
2019-03-01T00:25:13.405Z,10.74
2019-03-01T00:25:17.695Z,10.74
2019-03-01T00:25:21.986Z,10.74
2019-03-01T00:25:26.184Z,10.74
2019-03-01T00:25:30.489Z,10.72
2019-03-01T00:25:34.778Z,10.73
2019-03-01T00:25:39.063Z,10.73
2019-03-01T00:25:43.372Z,10.73
2019-03-01T00:25:47.663Z,10.73
2019-03-01T00:25:51.956Z,10.73
2019-03-01T00:25:56.240Z,10.72
2019-03-01T00:26:00.554Z,10.72
2019-03-01T00:26:04.841Z,10.72
2019-03-01T00:26:09.135Z,10.72
2019-03-01T00:26:13.431Z,10.73
2019-03-01T00:26:17.719Z,10.71
2019-03-01T00:26:22.007Z,10.72
2019-03-01T00:26:26.303Z,10.72
2019-03-01T00:26:30.598Z,10.71
2019-03-01T00:26:34.894Z,10.73
2019-03-01T00:26:39.188Z,10.72
2019-03-01T00:26:43.476Z,10.71
2019-03-01T00:26:47.690Z,10.72
2019-03-01T00:26:51.795Z,10.72
2019-03-01T00:26:55.995Z,10.71
2019-03-01T00:27:00.298Z,10.72
2019-03-01T00:27:04.604Z,10.72
2019-03-01T00:27:08.800Z,10.73
2019-03-01T00:27:13.087Z,10.71
2019-03-01T00:27:17.379Z,10.72
2019-03-01T00:27:21.674Z,10.72
2019-03-01T00:27:25.975Z,10.73
2019-03-01T00:27:30.273Z,10.73
2019-03-01T00:27:34.562Z,10.73
2019-03-01T00:27:38.849Z,10.73
2019-03-01T00:27:43.133Z,10.73
2019-03-01T00:27:47.424Z,10.73
2019-03-01T00:27:51.631Z,10.74
2019-03-01T00:27:55.922Z,10.73
2019-03-01T00:28:00.217Z,10.74
2019-03-01T00:28:04.660Z,10.74
2019-03-01T00:28:08.949Z,10.74
2019-03-01T00:28:13.275Z,10.74
2019-03-01T00:28:17.573Z,10.74
2019-03-01T00:28:21.871Z,10.75
2019-03-01T00:28:26.163Z,10.75
2019-03-01T00:28:30.462Z,10.74
2019-03-01T00:28:34.795Z,10.75
2019-03-01T00:28:39.092Z,10.75
2019-03-01T00:28:43.382Z,10.74
2019-03-01T00:28:47.686Z,10.75
2019-03-01T00:28:51.793Z,10.75
2019-03-01T00:28:56.093Z,10.76
2019-03-01T00:29:00.399Z,10.76
2019-03-01T00:29:04.755Z,10.75
2019-03-01T00:29:09.068Z,10.75
2019-03-01T00:29:13.357Z,10.76
2019-03-01T00:29:17.661Z,10.76
2019-03-01T00:29:21.867Z,10.76
2019-03-01T00:29:26.056Z,10.76
2019-03-01T00:29:30.384Z,10.77
2019-03-01T00:29:34.683Z,10.76
2019-03-01T00:29:38.986Z,10.76
2019-03-01T00:29:43.274Z,10.76
2019-03-01T00:29:47.471Z,10.76
2019-03-01T00:29:51.694Z,10.76
2019-03-01T00:29:55.925Z,10.76
2019-03-01T00:30:00.227Z,10.76
2019-03-01T00:30:04.495Z,10.77
2019-03-01T00:30:08.798Z,10.77
2019-03-01T00:30:13.004Z,10.77
2019-03-01T00:30:17.305Z,10.77
2019-03-01T00:30:21.592Z,10.76
2019-03-01T00:30:25.890Z,10.77
2019-03-01T00:30:30.188Z,10.77
2019-03-01T00:30:34.505Z,10.77
2019-03-01T00:30:38.803Z,10.77
2019-03-01T00:30:42.896Z,10.78
2019-03-01T00:30:47.096Z,10.78
2019-03-01T00:30:51.426Z,10.78
2019-03-01T00:30:55.708Z,10.78
2019-03-01T00:31:00.171Z,10.78
2019-03-01T00:31:04.479Z,10.79
2019-03-01T00:31:08.690Z,10.79
2019-03-01T00:31:12.979Z,10.79
2019-03-01T00:31:17.264Z,10.8
2019-03-01T00:31:21.479Z,10.8
2019-03-01T00:31:25.774Z,10.8
2019-03-01T00:31:31.931Z,10.79
2019-03-01T00:31:36.287Z,10.8
2019-03-01T00:31:40.580Z,10.8
2019-03-01T00:31:44.901Z,10.81
2019-03-01T00:31:49.094Z,10.8
2019-03-01T00:31:53.395Z,10.8
2019-03-01T00:31:57.705Z,10.82
2019-03-01T00:32:02.108Z,10.8
2019-03-01T00:32:06.481Z,10.81
2019-03-01T00:32:10.768Z,10.8
2019-03-01T00:32:15.063Z,10.81
2019-03-01T00:32:19.349Z,10.81
2019-03-01T00:32:23.642Z,10.8
2019-03-01T00:32:27.936Z,10.81
2019-03-01T00:32:32.223Z,10.81
2019-03-01T00:32:36.514Z,10.81
2019-03-01T00:32:40.708Z,10.8
2019-03-01T00:32:44.928Z,10.81
2019-03-01T00:32:49.120Z,10.8
2019-03-01T00:32:53.409Z,10.8
2019-03-01T00:32:57.707Z,10.8
2019-03-01T00:33:01.998Z,10.79
2019-03-01T00:33:06.201Z,10.79
2019-03-01T00:33:10.543Z,10.8
2019-03-01T00:33:14.840Z,10.8
2019-03-01T00:33:19.047Z,10.8
2019-03-01T00:33:23.368Z,10.8
2019-03-01T00:33:27.611Z,10.79
2019-03-01T00:33:31.901Z,10.8
2019-03-01T00:33:36.188Z,10.8
2019-03-01T00:33:40.490Z,10.79
2019-03-01T00:33:44.684Z,10.8
2019-03-01T00:33:48.972Z,10.8
2019-03-01T00:33:53.257Z,10.8
2019-03-01T00:33:57.551Z,10.79
2019-03-01T00:34:01.888Z,10.8
2019-03-01T00:34:06.178Z,10.8
2019-03-01T00:34:10.495Z,10.79
2019-03-01T00:34:14.792Z,10.81
2019-03-01T00:34:19.076Z,10.8
2019-03-01T00:34:23.363Z,10.8
2019-03-01T00:34:27.696Z,10.8
2019-03-01T00:34:31.991Z,10.8
2019-03-01T00:34:36.277Z,10.81
2019-03-01T00:34:40.570Z,10.8
2019-03-01T00:34:44.879Z,10.81
2019-03-01T00:34:49.178Z,10.81
2019-03-01T00:34:53.559Z,10.81
2019-03-01T00:34:57.866Z,10.8
2019-03-01T00:35:02.175Z,10.81
2019-03-01T00:35:06.372Z,10.8
2019-03-01T00:35:10.673Z,10.81
2019-03-01T00:35:14.976Z,10.81
2019-03-01T00:35:19.274Z,10.8
2019-03-01T00:35:23.569Z,10.8
2019-03-01T00:35:27.868Z,10.81
2019-03-01T00:35:32.173Z,10.81
2019-03-01T00:35:36.458Z,10.8
2019-03-01T00:35:40.762Z,10.81
2019-03-01T00:35:45.090Z,10.81
2019-03-01T00:35:49.375Z,10.81
2019-03-01T00:35:53.663Z,10.81
2019-03-01T00:35:57.961Z,10.82
2019-03-01T00:36:02.146Z,10.8
2019-03-01T00:36:06.338Z,10.81
2019-03-01T00:36:10.649Z,10.81
2019-03-01T00:36:14.748Z,10.81
2019-03-01T00:36:19.037Z,10.81
2019-03-01T00:36:23.321Z,10.8
2019-03-01T00:36:27.612Z,10.8
2019-03-01T00:36:31.913Z,10.81
2019-03-01T00:36:36.223Z,10.8
2019-03-01T00:36:40.509Z,10.81
2019-03-01T00:36:44.723Z,10.81
2019-03-01T00:36:49.018Z,10.8
2019-03-01T00:36:53.312Z,10.82
2019-03-01T00:36:57.600Z,10.81
2019-03-01T00:37:01.892Z,10.81
2019-03-01T00:37:06.281Z,10.8
2019-03-01T00:37:10.572Z,10.81
2019-03-01T00:37:14.870Z,10.81
2019-03-01T00:37:19.076Z,10.81
2019-03-01T00:37:23.385Z,10.8
2019-03-01T00:37:27.719Z,10.81
2019-03-01T00:37:32.017Z,10.81
2019-03-01T00:37:36.211Z,10.81
2019-03-01T00:37:40.501Z,10.81
2019-03-01T00:37:44.791Z,10.81
2019-03-01T00:37:49.078Z,10.81
2019-03-01T00:37:53.327Z,10.83
2019-03-01T00:37:57.534Z,10.82
2019-03-01T00:38:01.928Z,10.82
2019-03-01T00:38:06.234Z,10.82
2019-03-01T00:38:10.527Z,10.82
2019-03-01T00:38:14.818Z,10.83
2019-03-01T00:38:19.115Z,10.83
2019-03-01T00:38:23.348Z,10.84
2019-03-01T00:38:27.650Z,10.84
2019-03-01T00:38:31.944Z,10.84
2019-03-01T00:38:36.234Z,10.84
2019-03-01T00:38:40.540Z,10.84
2019-03-01T00:38:44.836Z,10.84
2019-03-01T00:38:49.130Z,10.85
2019-03-01T00:38:53.433Z,10.86
2019-03-01T00:38:57.727Z,10.86
2019-03-01T00:39:02.017Z,10.86
2019-03-01T00:39:06.310Z,10.86
2019-03-01T00:39:10.600Z,10.86
2019-03-01T00:39:14.896Z,10.86
2019-03-01T00:39:19.202Z,10.86
2019-03-01T00:39:23.490Z,10.86
2019-03-01T00:39:27.698Z,10.86
2019-03-01T00:39:32.001Z,10.86
2019-03-01T00:39:36.114Z,10.86
2019-03-01T00:39:40.416Z,10.86
2019-03-01T00:39:44.709Z,10.86
2019-03-01T00:39:48.994Z,10.87
2019-03-01T00:39:53.282Z,10.85
2019-03-01T00:39:57.572Z,10.85
2019-03-01T00:40:01.891Z,10.86
2019-03-01T00:40:06.236Z,10.86
2019-03-01T00:40:10.527Z,10.86
2019-03-01T00:40:14.718Z,10.84
2019-03-01T00:40:18.924Z,10.85
2019-03-01T00:40:23.254Z,10.86
2019-03-01T00:40:27.541Z,10.87
2019-03-01T00:40:31.835Z,10.86
2019-03-01T00:40:36.121Z,10.86
2019-03-01T00:40:40.460Z,10.87
2019-03-01T00:40:44.760Z,10.87
2019-03-01T00:40:49.050Z,10.87
2019-03-01T00:40:53.336Z,10.87
2019-03-01T00:40:57.623Z,10.88
2019-03-01T00:41:01.821Z,10.87
2019-03-01T00:41:06.443Z,10.87
2019-03-01T00:41:10.728Z,10.88
2019-03-01T00:41:15.020Z,10.87
2019-03-01T00:41:19.311Z,10.88
2019-03-01T00:41:23.604Z,10.87
2019-03-01T00:41:27.806Z,10.87
2019-03-01T00:41:32.109Z,10.87
2019-03-01T00:41:36.432Z,10.88
2019-03-01T00:41:40.727Z,10.87
2019-03-01T00:41:45.014Z,10.87
2019-03-01T00:41:49.311Z,10.88
2019-03-01T00:41:53.604Z,10.87
2019-03-01T00:41:57.893Z,10.87
2019-03-01T00:42:02.198Z,10.86
2019-03-01T00:42:06.506Z,10.87
2019-03-01T00:42:10.817Z,10.86
2019-03-01T00:42:15.113Z,10.86
2019-03-01T00:42:19.404Z,10.84
2019-03-01T00:42:23.694Z,10.86
2019-03-01T00:42:28.003Z,10.84
2019-03-01T00:42:32.303Z,10.84
2019-03-01T00:42:36.623Z,10.85
2019-03-01T00:42:40.967Z,10.84
2019-03-01T00:42:45.261Z,10.84
2019-03-01T00:42:49.455Z,10.85
2019-03-01T00:42:53.744Z,10.84
2019-03-01T00:42:58.050Z,10.82
2019-03-01T00:43:02.338Z,10.84
2019-03-01T00:43:06.641Z,10.85
2019-03-01T00:43:10.955Z,10.83
2019-03-01T00:43:15.239Z,10.83
2019-03-01T00:43:19.529Z,10.83
2019-03-01T00:43:23.829Z,10.82
2019-03-01T00:43:28.142Z,10.82
2019-03-01T00:43:32.444Z,10.81
2019-03-01T00:43:36.734Z,10.8
2019-03-01T00:43:41.031Z,10.8
2019-03-01T00:43:45.335Z,10.8
2019-03-01T00:43:49.637Z,10.8
2019-03-01T00:43:53.927Z,10.8
2019-03-01T00:43:58.218Z,10.79
2019-03-01T00:44:02.521Z,10.79
2019-03-01T00:44:06.711Z,10.78
2019-03-01T00:44:11.001Z,10.79
2019-03-01T00:44:15.297Z,10.78
2019-03-01T00:44:19.640Z,10.78
2019-03-01T00:44:23.836Z,10.77
2019-03-01T00:44:28.131Z,10.76
2019-03-01T00:44:32.465Z,10.77
2019-03-01T00:44:36.749Z,10.76
2019-03-01T00:44:41.060Z,10.76
2019-03-01T00:44:47.782Z,10.75
2019-03-01T00:44:52.416Z,10.75
2019-03-01T00:44:56.708Z,10.76
2019-03-01T00:45:01.086Z,10.75
2019-03-01T00:45:05.405Z,10.75
2019-03-01T00:45:09.598Z,10.74
2019-03-01T00:45:13.894Z,10.74
2019-03-01T00:45:18.184Z,10.74
2019-03-01T00:45:22.477Z,10.75
2019-03-01T00:45:26.706Z,10.74
2019-03-01T00:45:30.947Z,10.73
2019-03-01T00:45:35.235Z,10.73
2019-03-01T00:45:39.334Z,10.74
2019-03-01T00:45:43.524Z,10.74
2019-03-01T00:45:47.836Z,10.74
2019-03-01T00:45:52.049Z,10.74
2019-03-01T00:45:56.251Z,10.74
2019-03-01T00:46:00.558Z,10.74
2019-03-01T00:46:04.762Z,10.73
2019-03-01T00:46:09.058Z,10.73
2019-03-01T00:46:13.349Z,10.73
2019-03-01T00:46:17.647Z,10.73
2019-03-01T00:46:21.838Z,10.73
2019-03-01T00:46:26.141Z,10.73
2019-03-01T00:46:30.446Z,10.73
2019-03-01T00:46:34.742Z,10.73
2019-03-01T00:46:39.045Z,10.72
2019-03-01T00:46:43.359Z,10.71
2019-03-01T00:46:47.660Z,10.71
2019-03-01T00:46:51.991Z,10.71
2019-03-01T00:46:56.296Z,10.7
2019-03-01T00:47:00.592Z,10.7
2019-03-01T00:47:04.944Z,10.7
2019-03-01T00:47:09.265Z,10.7
2019-03-01T00:47:13.474Z,10.7
2019-03-01T00:47:17.785Z,10.7
2019-03-01T00:47:22.110Z,10.7
2019-03-01T00:47:26.432Z,10.7
2019-03-01T00:47:30.745Z,10.69
2019-03-01T00:47:34.943Z,10.7
2019-03-01T00:47:39.243Z,10.7
2019-03-01T00:47:43.543Z,10.69
2019-03-01T00:47:47.833Z,10.68
2019-03-01T00:47:52.033Z,10.69
2019-03-01T00:47:56.406Z,10.69
2019-03-01T00:48:00.596Z,10.68
2019-03-01T00:48:04.909Z,10.68
2019-03-01T00:48:09.195Z,10.68
2019-03-01T00:48:13.520Z,10.68
2019-03-01T00:48:17.823Z,10.68
2019-03-01T00:48:22.109Z,10.68
2019-03-01T00:48:26.395Z,10.66
2019-03-01T00:48:30.587Z,10.67
2019-03-01T00:48:34.935Z,10.67
2019-03-01T00:48:39.140Z,10.67
2019-03-01T00:48:43.432Z,10.67
2019-03-01T00:48:47.750Z,10.66
2019-03-01T00:48:52.045Z,10.67
2019-03-01T00:48:56.342Z,10.67
2019-03-01T00:49:00.665Z,10.66
2019-03-01T00:49:05.109Z,10.65
2019-03-01T00:49:09.301Z,10.65
2019-03-01T00:49:13.514Z,10.64
2019-03-01T00:49:17.801Z,10.64
2019-03-01T00:49:21.911Z,10.64
2019-03-01T00:49:26.231Z,10.64
2019-03-01T00:49:30.548Z,10.64
2019-03-01T00:49:34.844Z,10.63
2019-03-01T00:49:39.143Z,10.63
2019-03-01T00:49:43.436Z,10.63
2019-03-01T00:49:47.758Z,10.62
2019-03-01T00:49:52.061Z,10.63
2019-03-01T00:49:56.393Z,10.62
2019-03-01T00:50:00.728Z,10.61
2019-03-01T00:50:05.067Z,10.61
2019-03-01T00:50:09.373Z,10.61
2019-03-01T00:50:13.485Z,10.61
2019-03-01T00:50:17.682Z,10.61
2019-03-01T00:50:21.891Z,10.6
2019-03-01T00:50:26.094Z,10.6
2019-03-01T00:50:30.395Z,10.6
2019-03-01T00:50:34.698Z,10.6
2019-03-01T00:50:38.991Z,10.6
2019-03-01T00:50:43.295Z,10.58
2019-03-01T00:50:47.300Z,10.6
2019-03-01T00:50:51.595Z,10.59
2019-03-01T00:50:55.893Z,10.58
2019-03-01T00:51:00.207Z,10.59
2019-03-01T00:51:04.665Z,10.58
2019-03-01T00:51:08.959Z,10.59
2019-03-01T00:51:13.251Z,10.57
2019-03-01T00:51:17.544Z,10.57
2019-03-01T00:51:21.862Z,10.56
2019-03-01T00:51:26.160Z,10.55
2019-03-01T00:51:30.448Z,10.56
2019-03-01T00:51:34.648Z,10.55
2019-03-01T00:51:38.747Z,10.55
2019-03-01T00:51:42.940Z,10.55
2019-03-01T00:51:47.244Z,10.55
2019-03-01T00:51:51.561Z,10.55
2019-03-01T00:51:55.759Z,10.54
2019-03-01T00:52:00.101Z,10.53
2019-03-01T00:52:04.427Z,10.54
2019-03-01T00:52:08.732Z,10.53
2019-03-01T00:52:13.031Z,10.54
2019-03-01T00:52:17.243Z,10.53
2019-03-01T00:52:21.556Z,10.53
2019-03-01T00:52:25.870Z,10.53
2019-03-01T00:52:30.167Z,10.52
2019-03-01T00:52:34.356Z,10.53
2019-03-01T00:52:38.557Z,10.54
2019-03-01T00:52:42.574Z,10.53
2019-03-01T00:52:46.868Z,10.53
2019-03-01T00:52:51.072Z,10.53
2019-03-01T00:52:55.262Z,10.53
2019-03-01T00:52:59.561Z,10.53
2019-03-01T00:53:03.765Z,10.53
2019-03-01T00:53:08.056Z,10.53
2019-03-01T00:53:12.271Z,10.52
2019-03-01T00:53:16.572Z,10.52
2019-03-01T00:53:20.759Z,10.52
2019-03-01T00:53:24.953Z,10.52
2019-03-01T00:53:29.046Z,10.52
2019-03-01T00:53:33.241Z,10.52
2019-03-01T00:53:37.531Z,10.52
2019-03-01T00:53:41.848Z,10.51
2019-03-01T00:53:46.163Z,10.51
2019-03-01T00:53:50.484Z,10.52
2019-03-01T00:53:54.684Z,10.51
2019-03-01T00:53:59.040Z,10.51
2019-03-01T00:54:03.159Z,10.51
2019-03-01T00:54:07.477Z,10.51
2019-03-01T00:54:11.775Z,10.51
2019-03-01T00:54:16.099Z,10.51
2019-03-01T00:54:20.334Z,10.51
2019-03-01T00:54:24.629Z,10.51
2019-03-01T00:54:28.927Z,10.51
2019-03-01T00:54:33.121Z,10.51
2019-03-01T00:54:37.457Z,10.52
2019-03-01T00:54:41.748Z,10.51
2019-03-01T00:54:46.114Z,10.5
2019-03-01T00:54:50.408Z,10.5
2019-03-01T00:54:54.720Z,10.51
2019-03-01T00:54:59.021Z,10.51
2019-03-01T00:55:03.447Z,10.51
2019-03-01T00:55:07.759Z,10.51
2019-03-01T00:55:11.953Z,10.51
2019-03-01T00:55:16.154Z,10.5
2019-03-01T00:55:20.481Z,10.5
2019-03-01T00:55:24.835Z,10.5